sensor_id;sensor_type;location;lat;lon;timestamp;temperature;humidity
20246;DHT22;10281;54.406;18.556;2022-12-18T00:02:02;-2.70;99.90
20246;DHT22;10281;54.406;18.556;2022-12-18T00:04:29;-2.80;99.90
20246;DHT22;10281;54.406;18.556;2022-12-18T00:06:56;-2.80;99.90
20246;DHT22;10281;54.406;18.556;2022-12-18T00:09:23;-2.80;99.90
20246;DHT22;10281;54.406;18.556;2022-12-18T00:11:49;-2.80;99.90
20246;DHT22;10281;54.406;18.556;2022-12-18T00:14:16;-2.90;99.90
20246;DHT22;10281;54.406;18.556;2022-12-18T00:16:44;-2.80;99.90
20246;DHT22;10281;54.406;18.556;2022-12-18T00:19:13;-2.90;99.90
20246;DHT22;10281;54.406;18.556;2022-12-18T00:21:40;-3.00;99.90
20246;DHT22;10281;54.406;18.556;2022-12-18T00:24:07;-3.00;99.90
20246;DHT22;10281;54.406;18.556;2022-12-18T00:26:35;-3.10;99.90
20246;DHT22;10281;54.406;18.556;2022-12-18T00:29:17;-3.20;99.90
20246;DHT22;10281;54.406;18.556;2022-12-18T00:31:43;-3.20;99.90
20246;DHT22;10281;54.406;18.556;2022-12-18T00:34:12;-3.30;99.90
20246;DHT22;10281;54.406;18.556;2022-12-18T00:36:39;-3.40;99.90
20246;DHT22;10281;54.406;18.556;2022-12-18T00:39:07;-3.40;99.90
20246;DHT22;10281;54.406;18.556;2022-12-18T00:41:33;-3.50;99.90
20246;DHT22;10281;54.406;18.556;2022-12-18T00:44:08;-3.60;99.90
20246;DHT22;10281;54.406;18.556;2022-12-18T00:46:35;-3.60;99.90
20246;DHT22;10281;54.406;18.556;2022-12-18T00:49:02;-3.70;99.90
20246;DHT22;10281;54.406;18.556;2022-12-18T00:51:29;-3.70;99.90
20246;DHT22;10281;54.406;18.556;2022-12-18T00:53:56;-3.70;99.90
20246;DHT22;10281;54.406;18.556;2022-12-18T00:56:23;-3.70;99.90
20246;DHT22;10281;54.406;18.556;2022-12-18T00:58:49;-3.70;99.90
20246;DHT22;10281;54.406;18.556;2022-12-18T01:01:17;-3.80;99.90
20246;DHT22;10281;54.406;18.556;2022-12-18T01:03:43;-3.80;99.90
20246;DHT22;10281;54.406;18.556;2022-12-18T01:06:14;-3.90;99.90
20246;DHT22;10281;54.406;18.556;2022-12-18T01:08:41;-3.90;99.90
20246;DHT22;10281;54.406;18.556;2022-12-18T01:11:10;-3.90;99.90
20246;DHT22;10281;54.406;18.556;2022-12-18T01:13:38;-3.90;99.90
20246;DHT22;10281;54.406;18.556;2022-12-18T01:16:05;-3.90;99.90
20246;DHT22;10281;54.406;18.556;2022-12-18T01:18:32;-4.00;99.90
20246;DHT22;10281;54.406;18.556;2022-12-18T01:20:59;-3.90;99.90
20246;DHT22;10281;54.406;18.556;2022-12-18T01:23:25;-3.90;99.90
20246;DHT22;10281;54.406;18.556;2022-12-18T01:25:52;-3.90;99.90
20246;DHT22;10281;54.406;18.556;2022-12-18T01:28:19;-3.90;99.90
20246;DHT22;10281;54.406;18.556;2022-12-18T01:30:46;-3.90;99.90
20246;DHT22;10281;54.406;18.556;2022-12-18T01:33:13;-4.00;99.90
20246;DHT22;10281;54.406;18.556;2022-12-18T01:35:42;-3.90;99.90
20246;DHT22;10281;54.406;18.556;2022-12-18T01:38:09;-3.90;99.90
20246;DHT22;10281;54.406;18.556;2022-12-18T01:40:36;-3.90;99.90
20246;DHT22;10281;54.406;18.556;2022-12-18T01:43:03;-3.80;99.90
20246;DHT22;10281;54.406;18.556;2022-12-18T01:45:31;-3.80;99.90
20246;DHT22;10281;54.406;18.556;2022-12-18T01:48:04;-3.70;99.90
20246;DHT22;10281;54.406;18.556;2022-12-18T01:50:35;-3.70;99.90
20246;DHT22;10281;54.406;18.556;2022-12-18T01:53:20;-3.60;99.90
20246;DHT22;10281;54.406;18.556;2022-12-18T01:55:51;-3.50;99.90
20246;DHT22;10281;54.406;18.556;2022-12-18T01:58:21;-3.50;99.90
20246;DHT22;10281;54.406;18.556;2022-12-18T02:00:48;-3.50;99.90
20246;DHT22;10281;54.406;18.556;2022-12-18T02:03:15;-3.40;99.90
20246;DHT22;10281;54.406;18.556;2022-12-18T02:05:49;-3.30;99.90
20246;DHT22;10281;54.406;18.556;2022-12-18T02:10:57;-3.20;99.90
20246;DHT22;10281;54.406;18.556;2022-12-18T02:13:39;-3.20;99.90
20246;DHT22;10281;54.406;18.556;2022-12-18T02:16:11;-3.20;99.90
20246;DHT22;10281;54.406;18.556;2022-12-18T02:18:39;-3.10;99.90
20246;DHT22;10281;54.406;18.556;2022-12-18T02:21:20;-3.00;99.90
20246;DHT22;10281;54.406;18.556;2022-12-18T02:23:56;-3.00;99.90
20246;DHT22;10281;54.406;18.556;2022-12-18T02:26:34;-3.00;99.90
20246;DHT22;10281;54.406;18.556;2022-12-18T02:29:05;-3.00;99.90
20246;DHT22;10281;54.406;18.556;2022-12-18T02:31:42;-3.00;99.90
20246;DHT22;10281;54.406;18.556;2022-12-18T02:34:09;-2.90;99.90
20246;DHT22;10281;54.406;18.556;2022-12-18T02:36:40;-2.90;99.90
20246;DHT22;10281;54.406;18.556;2022-12-18T02:39:09;-2.90;99.90
20246;DHT22;10281;54.406;18.556;2022-12-18T02:41:37;-2.90;99.90
20246;DHT22;10281;54.406;18.556;2022-12-18T02:44:09;-2.90;99.90
20246;DHT22;10281;54.406;18.556;2022-12-18T02:46:41;-2.90;99.90
20246;DHT22;10281;54.406;18.556;2022-12-18T02:49:31;-2.90;99.90
20246;DHT22;10281;54.406;18.556;2022-12-18T02:52:07;-2.90;99.90
20246;DHT22;10281;54.406;18.556;2022-12-18T02:57:42;-2.90;99.90
20246;DHT22;10281;54.406;18.556;2022-12-18T03:00:16;-2.90;99.90
20246;DHT22;10281;54.406;18.556;2022-12-18T03:02:53;-2.80;99.90
20246;DHT22;10281;54.406;18.556;2022-12-18T03:05:24;-2.80;99.90
20246;DHT22;10281;54.406;18.556;2022-12-18T03:07:57;-2.80;99.90
20246;DHT22;10281;54.406;18.556;2022-12-18T03:10:27;-2.80;99.90
20246;DHT22;10281;54.406;18.556;2022-12-18T03:13:02;-2.70;99.90
20246;DHT22;10281;54.406;18.556;2022-12-18T03:15:35;-2.70;99.90
20246;DHT22;10281;54.406;18.556;2022-12-18T03:18:07;-2.70;99.90
20246;DHT22;10281;54.406;18.556;2022-12-18T03:20:36;-2.70;99.90
20246;DHT22;10281;54.406;18.556;2022-12-18T03:23:07;-2.70;99.90
20246;DHT22;10281;54.406;18.556;2022-12-18T03:25:37;-2.70;99.90
20246;DHT22;10281;54.406;18.556;2022-12-18T03:28:06;-2.70;99.90
20246;DHT22;10281;54.406;18.556;2022-12-18T03:30:36;-2.60;99.90
20246;DHT22;10281;54.406;18.556;2022-12-18T03:33:09;-2.60;99.90
20246;DHT22;10281;54.406;18.556;2022-12-18T03:35:39;-2.60;99.90
20246;DHT22;10281;54.406;18.556;2022-12-18T03:38:07;-2.50;99.90
20246;DHT22;10281;54.406;18.556;2022-12-18T03:40:41;-2.50;99.90
20246;DHT22;10281;54.406;18.556;2022-12-18T03:43:10;-2.50;99.90
20246;DHT22;10281;54.406;18.556;2022-12-18T03:45:42;-2.50;99.90
20246;DHT22;10281;54.406;18.556;2022-12-18T03:48:14;-2.50;99.90
20246;DHT22;10281;54.406;18.556;2022-12-18T03:50:59;-2.50;99.90
20246;DHT22;10281;54.406;18.556;2022-12-18T03:53:42;-2.50;99.90
20246;DHT22;10281;54.406;18.556;2022-12-18T03:56:09;-2.50;99.90
20246;DHT22;10281;54.406;18.556;2022-12-18T03:58:37;-2.50;99.90
20246;DHT22;10281;54.406;18.556;2022-12-18T04:01:07;-2.50;99.90
20246;DHT22;10281;54.406;18.556;2022-12-18T04:03:35;-2.50;99.90
20246;DHT22;10281;54.406;18.556;2022-12-18T04:06:03;-2.50;99.90
20246;DHT22;10281;54.406;18.556;2022-12-18T04:08:31;-2.50;99.90
20246;DHT22;10281;54.406;18.556;2022-12-18T04:11:01;-2.50;99.90
20246;DHT22;10281;54.406;18.556;2022-12-18T04:13:31;-2.40;99.90
20246;DHT22;10281;54.406;18.556;2022-12-18T04:15:57;-2.50;99.90
20246;DHT22;10281;54.406;18.556;2022-12-18T04:18:24;-2.50;99.90
20246;DHT22;10281;54.406;18.556;2022-12-18T04:20:51;-2.40;99.90
20246;DHT22;10281;54.406;18.556;2022-12-18T04:23:17;-2.50;99.90
20246;DHT22;10281;54.406;18.556;2022-12-18T04:25:45;-2.50;99.90
20246;DHT22;10281;54.406;18.556;2022-12-18T04:28:11;-2.50;99.90
20246;DHT22;10281;54.406;18.556;2022-12-18T04:30:38;-2.50;99.90
20246;DHT22;10281;54.406;18.556;2022-12-18T04:33:11;-2.50;99.90
20246;DHT22;10281;54.406;18.556;2022-12-18T04:35:39;-2.50;99.90
20246;DHT22;10281;54.406;18.556;2022-12-18T04:38:06;-2.50;99.90
20246;DHT22;10281;54.406;18.556;2022-12-18T04:40:34;-2.50;99.90
20246;DHT22;10281;54.406;18.556;2022-12-18T04:43:01;-2.50;99.90
20246;DHT22;10281;54.406;18.556;2022-12-18T04:45:28;-2.60;99.90
20246;DHT22;10281;54.406;18.556;2022-12-18T04:47:58;-2.60;99.90
20246;DHT22;10281;54.406;18.556;2022-12-18T04:50:25;-2.60;99.90
20246;DHT22;10281;54.406;18.556;2022-12-18T04:52:52;-2.60;99.90
20246;DHT22;10281;54.406;18.556;2022-12-18T04:55:19;-2.60;99.90
20246;DHT22;10281;54.406;18.556;2022-12-18T04:57:45;-2.60;99.90
20246;DHT22;10281;54.406;18.556;2022-12-18T05:00:13;-2.60;99.90
20246;DHT22;10281;54.406;18.556;2022-12-18T05:02:39;-2.70;99.90
20246;DHT22;10281;54.406;18.556;2022-12-18T05:05:06;-2.60;99.90
20246;DHT22;10281;54.406;18.556;2022-12-18T05:07:33;-2.60;99.90
20246;DHT22;10281;54.406;18.556;2022-12-18T05:10:00;-2.60;99.90
20246;DHT22;10281;54.406;18.556;2022-12-18T05:12:26;-2.60;99.90
20246;DHT22;10281;54.406;18.556;2022-12-18T05:14:53;-2.60;99.90
20246;DHT22;10281;54.406;18.556;2022-12-18T05:17:20;-2.60;99.90
20246;DHT22;10281;54.406;18.556;2022-12-18T05:19:46;-2.60;99.90
20246;DHT22;10281;54.406;18.556;2022-12-18T05:22:13;-2.60;99.90
20246;DHT22;10281;54.406;18.556;2022-12-18T05:24:40;-2.60;99.90
20246;DHT22;10281;54.406;18.556;2022-12-18T05:27:06;-2.60;99.90
20246;DHT22;10281;54.406;18.556;2022-12-18T05:29:33;-2.60;99.90
20246;DHT22;10281;54.406;18.556;2022-12-18T05:31:59;-2.70;99.90
20246;DHT22;10281;54.406;18.556;2022-12-18T05:34:26;-2.70;99.90
20246;DHT22;10281;54.406;18.556;2022-12-18T05:36:53;-2.70;99.90
20246;DHT22;10281;54.406;18.556;2022-12-18T05:39:19;-2.60;99.90
20246;DHT22;10281;54.406;18.556;2022-12-18T05:41:46;-2.70;99.90
20246;DHT22;10281;54.406;18.556;2022-12-18T05:44:12;-2.60;99.90
20246;DHT22;10281;54.406;18.556;2022-12-18T05:46:41;-2.60;99.90
20246;DHT22;10281;54.406;18.556;2022-12-18T05:49:07;-2.60;99.90
20246;DHT22;10281;54.406;18.556;2022-12-18T05:51:35;-2.60;99.90
20246;DHT22;10281;54.406;18.556;2022-12-18T05:54:01;-2.60;99.90
20246;DHT22;10281;54.406;18.556;2022-12-18T05:56:28;-2.60;99.90
20246;DHT22;10281;54.406;18.556;2022-12-18T05:58:54;-2.60;99.90
20246;DHT22;10281;54.406;18.556;2022-12-18T06:01:24;-2.60;99.90
20246;DHT22;10281;54.406;18.556;2022-12-18T06:03:52;-2.60;99.90
20246;DHT22;10281;54.406;18.556;2022-12-18T06:06:23;-2.60;99.90
20246;DHT22;10281;54.406;18.556;2022-12-18T06:08:50;-2.60;99.90
20246;DHT22;10281;54.406;18.556;2022-12-18T06:11:20;-2.60;99.90
20246;DHT22;10281;54.406;18.556;2022-12-18T06:13:54;-2.60;99.90
20246;DHT22;10281;54.406;18.556;2022-12-18T06:16:21;-2.60;99.90
20246;DHT22;10281;54.406;18.556;2022-12-18T06:18:47;-2.60;99.90
20246;DHT22;10281;54.406;18.556;2022-12-18T06:21:14;-2.60;99.90
20246;DHT22;10281;54.406;18.556;2022-12-18T06:23:40;-2.60;99.90
20246;DHT22;10281;54.406;18.556;2022-12-18T06:26:10;-2.60;99.90
20246;DHT22;10281;54.406;18.556;2022-12-18T06:28:38;-2.60;99.90
20246;DHT22;10281;54.406;18.556;2022-12-18T06:31:05;-2.60;99.90
20246;DHT22;10281;54.406;18.556;2022-12-18T06:33:32;-2.60;99.90
20246;DHT22;10281;54.406;18.556;2022-12-18T06:36:03;-2.70;99.90
20246;DHT22;10281;54.406;18.556;2022-12-18T06:38:32;-2.70;99.90
20246;DHT22;10281;54.406;18.556;2022-12-18T06:40:59;-2.80;99.90
20246;DHT22;10281;54.406;18.556;2022-12-18T06:43:26;-2.80;99.90
20246;DHT22;10281;54.406;18.556;2022-12-18T06:45:59;-2.80;99.90
20246;DHT22;10281;54.406;18.556;2022-12-18T06:48:26;-2.80;99.90
20246;DHT22;10281;54.406;18.556;2022-12-18T06:50:52;-2.90;99.90
20246;DHT22;10281;54.406;18.556;2022-12-18T06:53:19;-2.90;99.90
20246;DHT22;10281;54.406;18.556;2022-12-18T06:55:45;-2.90;99.90
20246;DHT22;10281;54.406;18.556;2022-12-18T06:58:12;-2.90;99.90
20246;DHT22;10281;54.406;18.556;2022-12-18T07:00:39;-2.90;99.90
20246;DHT22;10281;54.406;18.556;2022-12-18T07:03:05;-2.90;99.90
20246;DHT22;10281;54.406;18.556;2022-12-18T07:05:32;-2.90;99.90
20246;DHT22;10281;54.406;18.556;2022-12-18T07:07:59;-2.90;99.90
20246;DHT22;10281;54.406;18.556;2022-12-18T07:10:26;-3.00;99.90
20246;DHT22;10281;54.406;18.556;2022-12-18T07:12:52;-3.00;99.90
20246;DHT22;10281;54.406;18.556;2022-12-18T07:15:19;-3.00;99.90
20246;DHT22;10281;54.406;18.556;2022-12-18T07:17:46;-3.00;99.90
20246;DHT22;10281;54.406;18.556;2022-12-18T07:20:12;-3.00;99.90
20246;DHT22;10281;54.406;18.556;2022-12-18T07:22:39;-3.00;99.90
20246;DHT22;10281;54.406;18.556;2022-12-18T07:25:06;-3.00;99.90
20246;DHT22;10281;54.406;18.556;2022-12-18T07:27:33;-3.00;99.90
20246;DHT22;10281;54.406;18.556;2022-12-18T07:30:00;-3.00;99.90
20246;DHT22;10281;54.406;18.556;2022-12-18T07:32:26;-3.00;99.90
20246;DHT22;10281;54.406;18.556;2022-12-18T07:34:53;-3.00;99.90
20246;DHT22;10281;54.406;18.556;2022-12-18T07:37:19;-3.00;99.90
20246;DHT22;10281;54.406;18.556;2022-12-18T07:39:46;-3.10;99.90
20246;DHT22;10281;54.406;18.556;2022-12-18T07:42:13;-3.10;99.90
20246;DHT22;10281;54.406;18.556;2022-12-18T07:44:45;-3.10;99.90
20246;DHT22;10281;54.406;18.556;2022-12-18T07:47:12;-3.10;99.90
20246;DHT22;10281;54.406;18.556;2022-12-18T07:49:38;-3.10;99.90
20246;DHT22;10281;54.406;18.556;2022-12-18T07:52:05;-3.10;99.90
20246;DHT22;10281;54.406;18.556;2022-12-18T07:54:31;-3.10;99.90
20246;DHT22;10281;54.406;18.556;2022-12-18T07:57:00;-3.10;99.90
20246;DHT22;10281;54.406;18.556;2022-12-18T07:59:26;-3.10;99.90
20246;DHT22;10281;54.406;18.556;2022-12-18T08:01:53;-3.10;99.90
20246;DHT22;10281;54.406;18.556;2022-12-18T08:04:20;-3.10;99.90
20246;DHT22;10281;54.406;18.556;2022-12-18T08:06:46;-3.10;99.90
20246;DHT22;10281;54.406;18.556;2022-12-18T08:09:13;-3.10;99.90
20246;DHT22;10281;54.406;18.556;2022-12-18T08:11:40;-3.10;99.90
20246;DHT22;10281;54.406;18.556;2022-12-18T08:14:06;-3.10;99.90
20246;DHT22;10281;54.406;18.556;2022-12-18T08:16:33;-3.10;99.90
20246;DHT22;10281;54.406;18.556;2022-12-18T08:19:00;-3.10;99.90
20246;DHT22;10281;54.406;18.556;2022-12-18T08:21:28;-3.10;99.90
20246;DHT22;10281;54.406;18.556;2022-12-18T08:23:57;-3.10;99.90
20246;DHT22;10281;54.406;18.556;2022-12-18T08:26:26;-3.10;99.90
20246;DHT22;10281;54.406;18.556;2022-12-18T08:28:54;-3.10;99.90
20246;DHT22;10281;54.406;18.556;2022-12-18T08:31:22;-3.00;99.90
20246;DHT22;10281;54.406;18.556;2022-12-18T08:33:50;-3.00;99.90
20246;DHT22;10281;54.406;18.556;2022-12-18T08:36:17;-3.00;99.90
20246;DHT22;10281;54.406;18.556;2022-12-18T08:38:45;-3.00;99.90
20246;DHT22;10281;54.406;18.556;2022-12-18T08:41:14;-2.90;99.90
20246;DHT22;10281;54.406;18.556;2022-12-18T08:43:41;-2.90;99.90
20246;DHT22;10281;54.406;18.556;2022-12-18T08:46:14;-2.80;99.90
20246;DHT22;10281;54.406;18.556;2022-12-18T08:48:41;-2.90;99.90
20246;DHT22;10281;54.406;18.556;2022-12-18T08:51:08;-2.80;99.90
20246;DHT22;10281;54.406;18.556;2022-12-18T08:53:37;-2.90;99.90
20246;DHT22;10281;54.406;18.556;2022-12-18T08:56:04;-2.80;99.90
20246;DHT22;10281;54.406;18.556;2022-12-18T08:58:31;-2.80;99.90
20246;DHT22;10281;54.406;18.556;2022-12-18T09:01:03;-2.80;99.90
20246;DHT22;10281;54.406;18.556;2022-12-18T09:03:30;-2.80;99.90
20246;DHT22;10281;54.406;18.556;2022-12-18T09:05:57;-2.80;99.90
20246;DHT22;10281;54.406;18.556;2022-12-18T09:08:24;-2.70;99.90
20246;DHT22;10281;54.406;18.556;2022-12-18T09:10:50;-2.70;99.90
20246;DHT22;10281;54.406;18.556;2022-12-18T09:13:18;-2.70;99.90
20246;DHT22;10281;54.406;18.556;2022-12-18T09:15:47;-2.60;99.90
20246;DHT22;10281;54.406;18.556;2022-12-18T09:18:16;-2.60;99.90
20246;DHT22;10281;54.406;18.556;2022-12-18T09:20:43;-2.50;99.90
20246;DHT22;10281;54.406;18.556;2022-12-18T09:23:11;-2.50;99.90
20246;DHT22;10281;54.406;18.556;2022-12-18T09:25:38;-2.50;99.90
20246;DHT22;10281;54.406;18.556;2022-12-18T09:28:11;-2.50;99.90
20246;DHT22;10281;54.406;18.556;2022-12-18T09:30:40;-2.50;99.90
20246;DHT22;10281;54.406;18.556;2022-12-18T09:33:06;-2.40;99.90
20246;DHT22;10281;54.406;18.556;2022-12-18T09:35:37;-2.40;99.90
20246;DHT22;10281;54.406;18.556;2022-12-18T09:38:04;-2.30;99.90
20246;DHT22;10281;54.406;18.556;2022-12-18T09:40:41;-2.30;99.90
20246;DHT22;10281;54.406;18.556;2022-12-18T09:45:46;-2.20;99.90
20246;DHT22;10281;54.406;18.556;2022-12-18T09:48:23;-2.20;99.90
20246;DHT22;10281;54.406;18.556;2022-12-18T09:50:50;-2.10;99.90
20246;DHT22;10281;54.406;18.556;2022-12-18T09:53:20;-2.10;99.90
20246;DHT22;10281;54.406;18.556;2022-12-18T09:55:51;-2.10;99.90
20246;DHT22;10281;54.406;18.556;2022-12-18T09:58:37;-2.00;99.90
20246;DHT22;10281;54.406;18.556;2022-12-18T10:01:11;-2.00;99.90
20246;DHT22;10281;54.406;18.556;2022-12-18T10:03:39;-2.00;99.90
20246;DHT22;10281;54.406;18.556;2022-12-18T10:06:18;-2.00;99.90
20246;DHT22;10281;54.406;18.556;2022-12-18T10:08:49;-2.00;99.90
20246;DHT22;10281;54.406;18.556;2022-12-18T10:11:59;-2.00;99.90
20246;DHT22;10281;54.406;18.556;2022-12-18T10:14:20;-1.90;99.90
20246;DHT22;10281;54.406;18.556;2022-12-18T10:16:54;-1.90;99.90
20246;DHT22;10281;54.406;18.556;2022-12-18T10:19:27;-1.90;99.90
20246;DHT22;10281;54.406;18.556;2022-12-18T10:22:19;-1.90;99.90
20246;DHT22;10281;54.406;18.556;2022-12-18T10:24:53;-1.90;99.90
20246;DHT22;10281;54.406;18.556;2022-12-18T10:27:21;-1.80;99.90
20246;DHT22;10281;54.406;18.556;2022-12-18T10:29:47;-1.80;99.90
20246;DHT22;10281;54.406;18.556;2022-12-18T10:32:17;-1.70;99.90
20246;DHT22;10281;54.406;18.556;2022-12-18T10:34:46;-1.70;99.90
20246;DHT22;10281;54.406;18.556;2022-12-18T10:37:18;-1.70;99.90
20246;DHT22;10281;54.406;18.556;2022-12-18T10:39:47;-1.60;99.90
20246;DHT22;10281;54.406;18.556;2022-12-18T10:42:18;-1.60;99.90
20246;DHT22;10281;54.406;18.556;2022-12-18T10:44:46;-1.60;99.90
20246;DHT22;10281;54.406;18.556;2022-12-18T10:47:16;-1.60;99.90
20246;DHT22;10281;54.406;18.556;2022-12-18T10:49:50;-1.60;99.90
20246;DHT22;10281;54.406;18.556;2022-12-18T10:52:19;-1.50;99.90
20246;DHT22;10281;54.406;18.556;2022-12-18T10:54:51;-1.50;99.90
20246;DHT22;10281;54.406;18.556;2022-12-18T10:57:29;-1.40;99.90
20246;DHT22;10281;54.406;18.556;2022-12-18T10:59:58;-1.40;99.90
20246;DHT22;10281;54.406;18.556;2022-12-18T11:02:35;-1.40;99.90
20246;DHT22;10281;54.406;18.556;2022-12-18T11:05:25;-1.40;99.90
20246;DHT22;10281;54.406;18.556;2022-12-18T11:07:49;-1.40;99.90
20246;DHT22;10281;54.406;18.556;2022-12-18T11:10:18;-1.30;99.90
20246;DHT22;10281;54.406;18.556;2022-12-18T11:12:45;-1.30;99.90
20246;DHT22;10281;54.406;18.556;2022-12-18T11:15:19;-1.30;99.90
20246;DHT22;10281;54.406;18.556;2022-12-18T11:17:48;-1.30;99.90
20246;DHT22;10281;54.406;18.556;2022-12-18T11:20:31;-1.20;99.90
20246;DHT22;10281;54.406;18.556;2022-12-18T11:23:02;-1.20;99.90
20246;DHT22;10281;54.406;18.556;2022-12-18T11:25:32;-1.20;99.90
20246;DHT22;10281;54.406;18.556;2022-12-18T11:28:04;-1.10;99.90
20246;DHT22;10281;54.406;18.556;2022-12-18T11:30:33;-1.10;99.90
20246;DHT22;10281;54.406;18.556;2022-12-18T11:33:06;-1.00;99.90
20246;DHT22;10281;54.406;18.556;2022-12-18T11:35:51;-1.00;99.90
20246;DHT22;10281;54.406;18.556;2022-12-18T11:38:24;-1.00;99.90
20246;DHT22;10281;54.406;18.556;2022-12-18T11:43:50;-1.00;99.90
20246;DHT22;10281;54.406;18.556;2022-12-18T11:46:29;-1.00;99.90
20246;DHT22;10281;54.406;18.556;2022-12-18T11:49:06;-1.00;99.90
20246;DHT22;10281;54.406;18.556;2022-12-18T11:51:35;-0.90;99.90
20246;DHT22;10281;54.406;18.556;2022-12-18T11:54:09;-0.90;99.90
20246;DHT22;10281;54.406;18.556;2022-12-18T11:56:35;-0.80;99.90
20246;DHT22;10281;54.406;18.556;2022-12-18T11:59:15;-0.80;99.90
20246;DHT22;10281;54.406;18.556;2022-12-18T12:01:50;-0.80;99.90
20246;DHT22;10281;54.406;18.556;2022-12-18T12:04:33;-0.80;99.90
20246;DHT22;10281;54.406;18.556;2022-12-18T12:07:11;-0.80;99.90
20246;DHT22;10281;54.406;18.556;2022-12-18T12:09:48;-0.70;99.90
20246;DHT22;10281;54.406;18.556;2022-12-18T12:12:21;-0.70;99.90
20246;DHT22;10281;54.406;18.556;2022-12-18T12:14:54;-0.70;99.90
20246;DHT22;10281;54.406;18.556;2022-12-18T12:17:25;-0.60;99.90
20246;DHT22;10281;54.406;18.556;2022-12-18T12:21:07;-0.60;99.90
20246;DHT22;10281;54.406;18.556;2022-12-18T12:22:53;-0.60;99.90
20246;DHT22;10281;54.406;18.556;2022-12-18T12:25:41;-0.60;99.90
20246;DHT22;10281;54.406;18.556;2022-12-18T12:28:35;-0.60;99.90
20246;DHT22;10281;54.406;18.556;2022-12-18T12:31:23;-0.50;99.90
20246;DHT22;10281;54.406;18.556;2022-12-18T12:34:12;-0.60;99.90
20246;DHT22;10281;54.406;18.556;2022-12-18T12:36:42;-0.60;99.90
20246;DHT22;10281;54.406;18.556;2022-12-18T12:39:11;-0.50;99.90
20246;DHT22;10281;54.406;18.556;2022-12-18T12:41:39;-0.60;99.90
20246;DHT22;10281;54.406;18.556;2022-12-18T12:44:17;-0.60;99.90
20246;DHT22;10281;54.406;18.556;2022-12-18T12:46:45;-0.60;99.90
20246;DHT22;10281;54.406;18.556;2022-12-18T12:49:15;-0.60;99.90
20246;DHT22;10281;54.406;18.556;2022-12-18T12:51:47;-0.60;99.90
20246;DHT22;10281;54.406;18.556;2022-12-18T12:54:19;-0.60;99.90
20246;DHT22;10281;54.406;18.556;2022-12-18T12:56:50;-0.60;99.90
20246;DHT22;10281;54.406;18.556;2022-12-18T13:04:49;-0.50;99.90
20246;DHT22;10281;54.406;18.556;2022-12-18T13:07:24;-0.50;99.90
20246;DHT22;10281;54.406;18.556;2022-12-18T13:10:12;-0.50;99.90
20246;DHT22;10281;54.406;18.556;2022-12-18T13:15:25;-0.60;99.90
20246;DHT22;10281;54.406;18.556;2022-12-18T13:21:05;-0.60;99.90
20246;DHT22;10281;54.406;18.556;2022-12-18T13:23:36;-0.50;99.90
20246;DHT22;10281;54.406;18.556;2022-12-18T13:26:29;-0.50;99.90
20246;DHT22;10281;54.406;18.556;2022-12-18T13:28:58;-0.60;99.90
20246;DHT22;10281;54.406;18.556;2022-12-18T13:31:57;-0.50;99.90
20246;DHT22;10281;54.406;18.556;2022-12-18T13:34:23;-0.50;99.90
20246;DHT22;10281;54.406;18.556;2022-12-18T13:36:51;-0.60;99.90
20246;DHT22;10281;54.406;18.556;2022-12-18T13:39:23;-0.60;99.90
20246;DHT22;10281;54.406;18.556;2022-12-18T13:41:53;-0.60;99.90
20246;DHT22;10281;54.406;18.556;2022-12-18T13:44:34;-0.60;99.90
20246;DHT22;10281;54.406;18.556;2022-12-18T13:47:03;-0.60;99.90
20246;DHT22;10281;54.406;18.556;2022-12-18T13:49:36;-0.60;99.90
20246;DHT22;10281;54.406;18.556;2022-12-18T13:54:40;-0.80;99.90
20246;DHT22;10281;54.406;18.556;2022-12-18T13:59:44;-0.80;99.90
20246;DHT22;10281;54.406;18.556;2022-12-18T14:02:15;-0.80;99.90
20246;DHT22;10281;54.406;18.556;2022-12-18T14:04:45;-0.80;99.90
20246;DHT22;10281;54.406;18.556;2022-12-18T14:07:14;-0.90;99.90
20246;DHT22;10281;54.406;18.556;2022-12-18T14:09:45;-0.80;99.90
20246;DHT22;10281;54.406;18.556;2022-12-18T14:12:19;-0.90;99.90
20246;DHT22;10281;54.406;18.556;2022-12-18T14:14:53;-0.90;99.90
20246;DHT22;10281;54.406;18.556;2022-12-18T14:17:19;-0.90;99.90
20246;DHT22;10281;54.406;18.556;2022-12-18T14:19:49;-0.90;99.90
20246;DHT22;10281;54.406;18.556;2022-12-18T14:22:20;-1.00;99.90
20246;DHT22;10281;54.406;18.556;2022-12-18T14:25:04;-1.00;99.90
20246;DHT22;10281;54.406;18.556;2022-12-18T14:27:21;-1.00;99.90
20246;DHT22;10281;54.406;18.556;2022-12-18T14:29:48;-1.10;99.90
20246;DHT22;10281;54.406;18.556;2022-12-18T14:32:18;-1.10;99.90
20246;DHT22;10281;54.406;18.556;2022-12-18T14:34:50;-1.20;99.90
20246;DHT22;10281;54.406;18.556;2022-12-18T14:37:20;-1.20;99.90
20246;DHT22;10281;54.406;18.556;2022-12-18T14:39:54;-1.30;99.90
20246;DHT22;10281;54.406;18.556;2022-12-18T14:42:22;-1.30;99.90
20246;DHT22;10281;54.406;18.556;2022-12-18T14:44:49;-1.30;99.90
20246;DHT22;10281;54.406;18.556;2022-12-18T14:47:16;-1.30;99.90
20246;DHT22;10281;54.406;18.556;2022-12-18T14:49:43;-1.40;99.90
20246;DHT22;10281;54.406;18.556;2022-12-18T14:52:21;-1.40;99.90
20246;DHT22;10281;54.406;18.556;2022-12-18T14:54:46;-1.40;99.90
20246;DHT22;10281;54.406;18.556;2022-12-18T14:57:22;-1.40;99.90
20246;DHT22;10281;54.406;18.556;2022-12-18T14:59:50;-1.50;99.90
20246;DHT22;10281;54.406;18.556;2022-12-18T15:02:23;-1.50;99.90
20246;DHT22;10281;54.406;18.556;2022-12-18T15:05:02;-1.60;99.90
20246;DHT22;10281;54.406;18.556;2022-12-18T15:10:10;-1.70;99.90
20246;DHT22;10281;54.406;18.556;2022-12-18T15:12:40;-1.70;99.90
20246;DHT22;10281;54.406;18.556;2022-12-18T15:17:46;-1.80;99.90
20246;DHT22;10281;54.406;18.556;2022-12-18T15:20:13;-1.80;99.90
20246;DHT22;10281;54.406;18.556;2022-12-18T15:22:40;-1.80;99.90
20246;DHT22;10281;54.406;18.556;2022-12-18T15:27:45;-1.90;99.90
20246;DHT22;10281;54.406;18.556;2022-12-18T15:30:22;-1.90;99.90
20246;DHT22;10281;54.406;18.556;2022-12-18T15:32:49;-2.00;99.90
20246;DHT22;10281;54.406;18.556;2022-12-18T15:35:20;-1.90;99.90
20246;DHT22;10281;54.406;18.556;2022-12-18T15:37:47;-1.90;99.90
20246;DHT22;10281;54.406;18.556;2022-12-18T15:40:16;-1.90;99.90
20246;DHT22;10281;54.406;18.556;2022-12-18T15:42:43;-2.00;99.90
20246;DHT22;10281;54.406;18.556;2022-12-18T15:45:29;-2.00;99.90
20246;DHT22;10281;54.406;18.556;2022-12-18T15:47:56;-2.00;99.90
20246;DHT22;10281;54.406;18.556;2022-12-18T15:50:23;-2.10;99.90
20246;DHT22;10281;54.406;18.556;2022-12-18T15:52:51;-2.10;99.90
20246;DHT22;10281;54.406;18.556;2022-12-18T15:55:22;-2.10;99.90
20246;DHT22;10281;54.406;18.556;2022-12-18T15:57:54;-2.20;99.90
20246;DHT22;10281;54.406;18.556;2022-12-18T16:00:21;-2.20;99.90
20246;DHT22;10281;54.406;18.556;2022-12-18T16:02:48;-2.20;99.90
20246;DHT22;10281;54.406;18.556;2022-12-18T16:05:16;-2.20;99.90
20246;DHT22;10281;54.406;18.556;2022-12-18T16:07:44;-2.20;99.90
20246;DHT22;10281;54.406;18.556;2022-12-18T16:10:11;-2.30;99.90